Portada
METAR-TAF:

METAR-TAF

Aeroports :

Foz do Iguaçu, Paranà, Brasil

latitud: 25-31S, longitud: 054-35W, altitud: 180 m

Observació

L'informe es va fer fa 11 minuts, a les 15:00 UTC
Vent 5 kt del Est
Temperatura 22°C
Humitat 57%
Pressió 1025 hPa
Visibilitat 10 km o més
sense núvols per sota de 1500 mi sense presència de cumulonimbus.

METAR: SBFI 171500Z 10005KT CAVOK 22/13 Q1025

Hora: 12:11 (15:11 UTC)

Pronòstic

L'informe es va fer fa 5 hores i 26 minuts, a les 09:45 UTC
Pronòstic vàlid del 17 a les 12 UTC al 18 a les 12 UTC
Vent 8 kt del Est
Visibilitat 10 km o més
sense núvols per sota de 1500 mi sense presència de cumulonimbus.
Probabilitat 40% :
Temporalment
l' 18 a les 08 UTC al 18 a les 11 UTC
Visibilitat: 5000 m
boirina

TAF: SBFI 170945Z 1712/1812 10008KT CAVOK TX28/1718Z TN14/1808Z PROB40 TEMPO 1808/1811 5000 BR NSC RMK PEB

Observacions i pronòstics meteorològics de més de 4000 aeroports (METAR i TAF).

Les estacions disponibles són els punts grocs i vermells al mapa.

Posi el ratolí al punt desitjat per veure el nom de l'estació.

Feu clic per veure les observacions i els pronòstics meteorològics.

Per canviar el mapa: feu clic els botons verds amb una creu de color negre per apropar; al botó verd amb un guió per allunyar la imatge; o en les fletxes verdes per a mapes adjacents.


METAR-TAF: